Time;durP1;ratioP1;P1;durP2;ratioP2;P2;SDS_P1;SDS_P2;PMS_P1;PMS_P2;Temp;Humidity;BMP_temperature;BMP_pressure;BME280_temperature;BME280_humidity;BME280_pressure;Samples;Min_cycle;Max_cycle;Signal;HPM_P1;HPM_P2
2022/01/07 00:00:02;;;;;;;9.03;5.10;;;;;;;2.50;100.00;94807.63;5078401;28;20220;-87
2022/01/07 00:02:31;;;;;;;8.83;5.30;;;;;;;2.47;100.00;94802.03;5073270;28;20212;-87
2022/01/07 00:04:59;;;;;;;9.83;5.50;;;;;;;2.32;100.00;94799.34;5071472;28;20208;-87
2022/01/07 00:07:28;;;;;;;8.80;5.30;;;;;;;2.33;100.00;94805.25;5073745;28;20266;-88
2022/01/07 00:09:56;;;;;;;12.03;5.87;;;;;;;2.36;100.00;94804.94;5072182;28;20208;-87
2022/01/07 00:12:24;;;;;;;8.63;5.53;;;;;;;2.44;100.00;94805.72;5081091;28;20204;-88
2022/01/07 00:14:52;;;;;;;8.00;5.40;;;;;;;2.40;100.00;94812.13;5074909;28;20292;-85
2022/01/07 00:17:20;;;;;;;8.00;5.17;;;;;;;2.38;100.00;94815.81;5086382;28;20259;-90
2022/01/07 00:19:49;;;;;;;8.67;5.20;;;;;;;2.35;100.00;94821.28;5096602;28;20216;-88
2022/01/07 00:22:16;;;;;;;7.73;5.47;;;;;;;2.36;100.00;94817.75;5083103;28;20219;-86
2022/01/07 00:24:46;;;;;;;7.83;5.03;;;;;;;2.40;100.00;94819.00;5077108;28;20205;-87
2022/01/07 00:27:14;;;;;;;5.67;4.27;;;;;;;2.33;100.00;94812.97;5069210;28;20215;-86
2022/01/07 00:29:41;;;;;;;7.37;4.83;;;;;;;2.32;100.00;94817.28;5075522;28;20196;-86
2022/01/07 00:32:09;;;;;;;7.70;5.33;;;;;;;2.38;100.00;94814.06;5080011;28;20208;-86
2022/01/07 00:34:37;;;;;;;6.47;4.73;;;;;;;2.41;100.00;94818.06;5078623;28;20209;-86
2022/01/07 00:37:05;;;;;;;7.10;5.20;;;;;;;2.51;100.00;94813.56;5068743;28;20205;-86
2022/01/07 00:39:33;;;;;;;7.47;5.33;;;;;;;2.50;100.00;94815.31;5083611;28;20615;-88
2022/01/07 00:42:02;;;;;;;6.63;4.97;;;;;;;2.59;100.00;94811.78;5069915;28;20219;-88
2022/01/07 00:44:29;;;;;;;7.57;5.10;;;;;;;2.54;100.00;94811.44;5079956;28;20254;-85
2022/01/07 00:46:57;;;;;;;7.67;5.20;;;;;;;2.57;100.00;94823.16;5081638;28;20232;-87
2022/01/07 00:49:24;;;;;;;5.80;4.53;;;;;;;2.51;100.00;94829.72;5083690;28;20652;-85
2022/01/07 00:51:52;;;;;;;6.30;4.80;;;;;;;2.42;100.00;94841.00;5071038;28;20284;-83
2022/01/07 00:54:21;;;;;;;8.10;5.53;;;;;;;2.41;100.00;94833.44;5081773;28;20674;-84
2022/01/07 00:56:50;;;;;;;7.43;5.33;;;;;;;2.48;100.00;94839.53;5075086;28;20266;-85
2022/01/07 00:59:20;;;;;;;6.27;4.73;;;;;;;2.42;100.00;94842.75;5073456;28;20205;-85
2022/01/07 01:01:49;;;;;;;7.53;5.60;;;;;;;2.37;100.00;94847.56;5073704;28;20212;-85
2022/01/07 01:04:18;;;;;;;7.67;5.43;;;;;;;2.34;100.00;94850.47;5079888;28;20666;-85
2022/01/07 01:06:47;;;;;;;8.20;5.53;;;;;;;2.33;100.00;94847.09;5080168;28;20292;-85
2022/01/07 01:09:17;;;;;;;8.57;5.77;;;;;;;2.40;100.00;94835.22;5085174;28;20280;-85
2022/01/07 01:11:44;;;;;;;7.23;5.20;;;;;;;2.55;100.00;94843.03;5086030;28;20189;-86
2022/01/07 01:14:13;;;;;;;9.33;5.37;;;;;;;2.37;100.00;94848.34;5074383;28;20205;-86
2022/01/07 01:16:44;;;;;;;8.67;5.17;;;;;;;2.35;100.00;94839.22;5078087;28;20218;-85
2022/01/07 01:19:13;;;;;;;6.37;5.00;;;;;;;2.29;100.00;94845.81;5075916;28;20294;-86
2022/01/07 01:21:41;;;;;;;9.23;5.43;;;;;;;2.26;100.00;94848.69;5082180;28;20261;-85
2022/01/07 01:24:09;;;;;;;6.93;5.10;;;;;;;2.20;100.00;94857.03;5074477;28;20202;-84
2022/01/07 01:26:37;;;;;;;7.30;5.10;;;;;;;2.22;100.00;94850.78;5076564;28;20212;-84
2022/01/07 01:29:05;;;;;;;7.13;5.53;;;;;;;2.28;100.00;94847.56;5079603;28;20196;-86
2022/01/07 01:31:36;;;;;;;6.57;5.13;;;;;;;2.12;100.00;94827.09;5082346;28;20233;-86
2022/01/07 01:34:06;;;;;;;8.17;5.73;;;;;;;2.20;100.00;94844.22;5081846;28;20276;-86
2022/01/07 01:36:34;;;;;;;8.13;5.73;;;;;;;2.33;100.00;94847.09;5083972;28;20208;-85
2022/01/07 01:39:01;;;;;;;8.10;5.70;;;;;;;2.19;100.00;94842.63;5077298;28;20204;-85
2022/01/07 01:41:29;;;;;;;8.80;6.00;;;;;;;2.20;100.00;94833.97;5072641;28;20225;-85
2022/01/07 01:43:57;;;;;;;8.10;6.07;;;;;;;2.13;100.00;94826.13;5084106;28;20199;-85
2022/01/07 01:46:25;;;;;;;7.67;5.80;;;;;;;2.38;100.00;94849.16;5083573;28;20251;-85
2022/01/07 01:48:54;;;;;;;7.73;5.30;;;;;;;2.43;100.00;94844.31;5084913;28;20311;-84
2022/01/07 01:51:23;;;;;;;8.30;5.87;;;;;;;2.40;100.00;94850.59;5085421;28;20287;-85
2022/01/07 01:53:50;;;;;;;7.23;5.10;;;;;;;2.29;100.00;94843.25;5086824;28;20236;-84
2022/01/07 01:56:18;;;;;;;7.07;5.53;;;;;;;2.15;100.00;94847.28;5078517;28;20305;-84
2022/01/07 01:58:46;;;;;;;8.20;6.00;;;;;;;2.19;100.00;94829.81;5083061;28;20228;-84
2022/01/07 02:01:14;;;;;;;9.10;5.60;;;;;;;2.14;100.00;94842.28;5074901;28;20223;-85
2022/01/07 02:03:42;;;;;;;7.00;5.30;;;;;;;2.12;100.00;94850.16;5084078;28;20206;-85
2022/01/07 02:06:11;;;;;;;7.20;5.10;;;;;;;1.99;100.00;94843.94;5081304;28;20251;-85
2022/01/07 02:08:41;;;;;;;7.30;4.93;;;;;;;2.01;100.00;94842.81;5087706;28;20221;-84
2022/01/07 02:11:10;;;;;;;7.03;5.40;;;;;;;1.91;100.00;94847.28;5078469;28;20193;-85
2022/01/07 02:13:37;;;;;;;8.53;5.40;;;;;;;1.94;100.00;94851.28;5071920;28;20205;-85
2022/01/07 02:16:06;;;;;;;6.80;4.90;;;;;;;1.90;100.00;94845.69;5077726;28;20781;-84
2022/01/07 02:18:33;;;;;;;5.67;4.40;;;;;;;1.87;100.00;94860.56;5070456;28;20631;-85
2022/01/07 02:21:03;;;;;;;7.77;4.90;;;;;;;1.82;100.00;94855.91;5084839;28;20231;-84
2022/01/07 02:23:32;;;;;;;6.97;5.27;;;;;;;1.86;100.00;94853.84;5078138;28;20280;-86
2022/01/07 02:26:02;;;;;;;6.10;4.77;;;;;;;1.82;100.00;94850.78;5085620;28;20229;-88
2022/01/07 02:28:30;;;;;;;6.17;4.63;;;;;;;1.83;100.00;94859.28;5099469;28;20625;-88
2022/01/07 02:30:58;;;;;;;7.10;4.47;;;;;;;1.86;100.00;94859.78;5102827;28;20327;-88
2022/01/07 02:33:26;;;;;;;7.00;5.10;;;;;;;1.76;100.00;94853.22;5079041;28;20271;-88
2022/01/07 02:35:55;;;;;;;7.33;4.90;;;;;;;1.81;100.00;94849.22;5079441;28;20256;-89
2022/01/07 02:38:24;;;;;;;5.63;4.23;;;;;;;1.89;100.00;94849.19;5072591;28;20201;-92
2022/01/07 02:40:51;;;;;;;6.07;4.60;;;;;;;1.84;100.00;94871.94;5072747;28;20221;-93
2022/01/07 02:43:19;;;;;;;7.60;5.00;;;;;;;1.88;100.00;94868.09;5073891;28;20207;-92
2022/01/07 02:45:46;;;;;;;7.43;5.20;;;;;;;1.86;100.00;94869.22;5074371;28;20207;-89
2022/01/07 02:48:14;;;;;;;7.17;4.80;;;;;;;1.81;100.00;94868.91;5078730;28;20588;-89
2022/01/07 02:50:42;;;;;;;8.20;4.83;;;;;;;1.80;100.00;94878.34;5068873;28;20304;-90
2022/01/07 02:53:12;;;;;;;8.37;5.33;;;;;;;1.78;100.00;94884.59;5081333;28;20266;-90
2022/01/07 02:55:42;;;;;;;7.07;4.77;;;;;;;1.80;100.00;94875.78;5069678;28;20201;-89
2022/01/07 02:58:11;;;;;;;7.67;4.40;;;;;;;1.87;100.00;94871.63;5082980;28;20283;-87
2022/01/07 03:00:39;;;;;;;7.17;4.80;;;;;;;1.83;100.00;94872.91;5078370;28;20259;-90
2022/01/07 03:03:08;;;;;;;8.53;5.30;;;;;;;1.80;100.00;94864.72;5076286;28;20664;-86
2022/01/07 03:05:39;;;;;;;11.73;5.50;;;;;;;1.82;100.00;94867.94;5097705;28;20256;-88
2022/01/07 03:08:07;;;;;;;8.47;5.17;;;;;;;1.89;100.00;94869.69;5088778;28;20204;-84
2022/01/07 03:10:35;;;;;;;6.33;4.60;;;;;;;1.87;100.00;94861.38;5084539;28;20195;-84
2022/01/07 03:13:05;;;;;;;7.07;5.10;;;;;;;1.93;100.00;94863.31;5088783;28;20678;-84
2022/01/07 03:15:35;;;;;;;8.37;5.43;;;;;;;1.92;100.00;94873.69;5082712;28;20199;-84
2022/01/07 03:18:03;;;;;;;8.60;5.00;;;;;;;1.85;100.00;94877.88;5076326;28;20201;-86
2022/01/07 03:20:37;;;;;;;7.20;4.60;;;;;;;1.94;100.00;94879.47;5078915;28;20308;-84
2022/01/07 03:23:07;;;;;;;7.20;4.50;;;;;;;1.94;100.00;94872.56;5080447;28;20285;-85
2022/01/07 03:25:36;;;;;;;6.67;5.13;;;;;;;1.81;100.00;94877.38;5082811;28;20207;-84
2022/01/07 03:28:07;;;;;;;7.23;4.73;;;;;;;1.80;100.00;94869.84;5083742;28;20290;-83
2022/01/07 03:30:34;;;;;;;7.17;5.03;;;;;;;1.81;100.00;94881.69;5080496;28;20240;-82
2022/01/07 03:33:02;;;;;;;8.13;5.50;;;;;;;1.92;100.00;94873.69;5081050;28;20658;-83
2022/01/07 03:35:31;;;;;;;7.70;5.43;;;;;;;1.88;100.00;94883.47;5082607;28;20221;-82
2022/01/07 03:37:58;;;;;;;7.43;5.00;;;;;;;1.80;100.00;94873.22;5074905;28;20215;-81
2022/01/07 03:40:27;;;;;;;7.63;5.30;;;;;;;1.71;100.00;94859.59;5087632;28;20290;-81
2022/01/07 03:42:55;;;;;;;8.53;5.33;;;;;;;1.79;100.00;94881.84;5080205;28;20274;-82
2022/01/07 03:45:24;;;;;;;8.57;5.43;;;;;;;1.87;100.00;94889.56;5082706;28;20201;-82
2022/01/07 03:47:53;;;;;;;8.27;5.60;;;;;;;1.81;100.00;94892.75;5081062;28;20246;-83
2022/01/07 03:50:22;;;;;;;7.90;5.33;;;;;;;1.84;100.00;94900.13;5074703;28;20199;-83
2022/01/07 03:52:50;;;;;;;10.23;5.93;;;;;;;1.86;100.00;94882.03;5085172;28;20641;-83
2022/01/07 03:55:20;;;;;;;8.17;5.67;;;;;;;1.88;100.00;94898.81;5085924;28;20339;-84
2022/01/07 03:57:48;;;;;;;8.50;5.50;;;;;;;1.86;100.00;94900.75;5079891;28;20199;-84
2022/01/07 04:00:19;;;;;;;8.77;5.90;;;;;;;1.88;100.00;94890.34;5090342;28;20756;-83
2022/01/07 04:02:51;;;;;;;9.10;6.00;;;;;;;1.80;100.00;94891.16;5081142;28;20300;-82
2022/01/07 04:05:22;;;;;;;9.90;6.20;;;;;;;1.81;100.00;94897.88;5078470;28;20200;-83
2022/01/07 04:07:51;;;;;;;9.20;5.70;;;;;;;1.88;100.00;94901.41;5088946;28;20207;-86
2022/01/07 04:10:19;;;;;;;8.93;5.73;;;;;;;1.88;100.00;94898.81;5090966;28;20280;-88
2022/01/07 04:12:46;;;;;;;10.53;6.53;;;;;;;1.81;100.00;94886.81;5077300;28;20211;-88
2022/01/07 04:15:14;;;;;;;11.27;6.73;;;;;;;1.91;100.00;94903.63;5077362;28;20562;-87
2022/01/07 04:17:43;;;;;;;12.40;6.93;;;;;;;1.93;100.00;94906.88;5073250;28;20687;-83
2022/01/07 04:20:14;;;;;;;13.67;7.53;;;;;;;1.90;100.00;94909.75;5075877;28;20270;-82
2022/01/07 04:22:44;;;;;;;11.93;7.40;;;;;;;1.97;100.00;94913.25;5066916;28;20795;-71
2022/01/07 04:25:17;;;;;;;14.53;7.63;;;;;;;2.05;100.00;94920.94;5064342;28;20202;-71
2022/01/07 04:27:46;;;;;;;12.37;7.07;;;;;;;2.12;100.00;94924.47;5068470;28;20193;-72
2022/01/07 04:30:13;;;;;;;11.90;7.20;;;;;;;2.16;100.00;94922.41;5063406;28;20229;-72
2022/01/07 04:32:42;;;;;;;12.43;6.97;;;;;;;2.11;100.00;94925.44;5071148;28;20299;-71
2022/01/07 04:35:18;;;;;;;11.10;7.00;;;;;;;2.12;100.00;94928.81;5068578;28;20207;-72
2022/01/07 04:37:47;;;;;;;12.00;7.27;;;;;;;2.09;100.00;94926.56;5069045;28;20573;-72
2022/01/07 04:40:17;;;;;;;8.23;5.90;;;;;;;2.02;100.00;94920.47;5064859;28;20211;-72
2022/01/07 04:42:45;;;;;;;12.03;7.63;;;;;;;2.04;100.00;94928.81;5067953;28;20200;-72
2022/01/07 04:45:14;;;;;;;15.27;8.70;;;;;;;1.99;100.00;94931.06;5066725;28;20202;-71
2022/01/07 04:47:43;;;;;;;13.10;7.50;;;;;;;1.99;100.00;94931.81;5073288;28;20685;-79
2022/01/07 04:50:14;;;;;;;13.90;7.67;;;;;;;2.07;100.00;94939.53;5073845;28;20205;-72
2022/01/07 04:52:44;;;;;;;12.73;7.57;;;;;;;2.20;100.00;94939.06;5069265;28;20197;-72
2022/01/07 04:55:12;;;;;;;13.13;7.47;;;;;;;2.26;100.00;94943.53;5067772;28;20273;-71
2022/01/07 04:57:39;;;;;;;15.83;9.03;;;;;;;2.25;100.00;94934.28;5067977;28;20648;-71
2022/01/07 05:00:08;;;;;;;17.70;9.63;;;;;;;2.32;100.00;94945.47;5076879;28;20204;-72
2022/01/07 05:02:37;;;;;;;15.27;8.70;;;;;;;2.36;100.00;94951.09;5067361;28;20232;-72
2022/01/07 05:05:06;;;;;;;16.23;9.53;;;;;;;2.31;100.00;94937.97;5069208;28;20201;-71
2022/01/07 05:07:36;;;;;;;16.97;9.73;;;;;;;2.43;100.00;94947.72;5070059;28;20647;-71
2022/01/07 05:10:05;;;;;;;16.50;8.87;;;;;;;2.44;100.00;94951.88;5070128;28;20200;-71
2022/01/07 05:12:33;;;;;;;13.33;7.50;;;;;;;2.44;100.00;94958.78;5069666;28;20204;-71
2022/01/07 05:15:02;;;;;;;13.80;7.90;;;;;;;2.40;100.00;94952.34;5069524;28;20264;-71
2022/01/07 05:17:30;;;;;;;16.07;8.33;;;;;;;2.15;100.00;94942.09;5070251;28;20671;-72
2022/01/07 05:19:57;;;;;;;15.87;9.40;;;;;;;2.07;100.00;94951.56;5066785;28;20221;-71
2022/01/07 05:22:28;;;;;;;13.60;7.90;;;;;;;2.03;100.00;94940.00;5068612;28;20227;-72
2022/01/07 05:24:58;;;;;;;19.33;8.20;;;;;;;2.25;100.00;94945.31;5068666;28;20288;-71
2022/01/07 05:27:26;;;;;;;13.83;8.23;;;;;;;2.20;100.00;94945.00;5068738;28;20238;-70
2022/01/07 05:29:55;;;;;;;12.37;7.73;;;;;;;2.26;100.00;94953.81;5068771;28;20205;-70
2022/01/07 05:32:23;;;;;;;13.17;8.10;;;;;;;2.32;100.00;94954.91;5068492;28;20643;-71
2022/01/07 05:34:51;;;;;;;14.30;8.40;;;;;;;2.35;100.00;94959.72;5068316;28;20200;-70
2022/01/07 05:37:19;;;;;;;15.40;9.10;;;;;;;2.29;100.00;94961.97;5068482;28;20644;-70
2022/01/07 05:39:47;;;;;;;12.60;8.17;;;;;;;2.19;100.00;94961.31;5068015;28;20888;-70
2022/01/07 05:42:16;;;;;;;12.60;7.80;;;;;;;2.23;100.00;94961.81;5067114;28;20723;-71
2022/01/07 05:44:45;;;;;;;10.77;6.77;;;;;;;2.24;100.00;94965.97;5068016;28;20279;-71
2022/01/07 05:47:12;;;;;;;9.53;6.43;;;;;;;2.28;100.00;94972.38;5070065;28;20207;-70
2022/01/07 05:49:40;;;;;;;14.63;7.93;;;;;;;2.31;100.00;94971.28;5069429;28;20227;-71
2022/01/07 05:52:09;;;;;;;12.10;7.70;;;;;;;2.28;100.00;94968.06;5068739;28;20288;-71
2022/01/07 05:54:37;;;;;;;11.47;7.10;;;;;;;2.19;100.00;94968.22;5068439;28;20209;-71
2022/01/07 05:57:06;;;;;;;14.30;8.27;;;;;;;2.11;100.00;94973.31;5068730;28;20208;-71
2022/01/07 05:59:36;;;;;;;12.37;7.73;;;;;;;2.11;100.00;94974.13;5068803;28;20702;-71
2022/01/07 06:02:04;;;;;;;16.20;8.87;;;;;;;2.13;100.00;94979.13;5068772;28;20319;-71
2022/01/07 06:04:32;;;;;;;15.17;8.93;;;;;;;2.13;100.00;94972.22;5069081;28;20207;-71
2022/01/07 06:06:59;;;;;;;13.40;8.70;;;;;;;2.01;100.00;94980.38;5069460;28;20244;-71
2022/01/07 06:09:27;;;;;;;15.50;9.03;;;;;;;2.11;100.00;94970.75;5069470;28;20208;-71
2022/01/07 06:11:55;;;;;;;14.33;8.13;;;;;;;2.03;100.00;94974.13;5069492;28;20194;-71
2022/01/07 06:14:23;;;;;;;12.40;7.83;;;;;;;2.00;100.00;94973.63;5069764;28;20531;-70
2022/01/07 06:16:53;;;;;;;13.87;8.50;;;;;;;1.90;100.00;94976.34;5074510;28;20201;-71
2022/01/07 06:19:20;;;;;;;14.57;8.70;;;;;;;1.70;100.00;94944.28;5063071;28;20231;-71
2022/01/07 06:21:48;;;;;;;15.60;9.00;;;;;;;1.79;100.00;94974.06;5069372;28;20718;-70
2022/01/07 06:24:17;;;;;;;19.93;10.57;;;;;;;1.82;100.00;94972.97;5062453;28;20199;-73
2022/01/07 06:26:46;;;;;;;20.63;12.33;;;;;;;1.86;100.00;94977.63;5063088;28;20204;-72
2022/01/07 06:29:14;;;;;;;21.40;11.63;;;;;;;1.87;100.00;94986.09;5069154;28;20207;-72
2022/01/07 06:31:42;;;;;;;23.80;12.97;;;;;;;1.89;100.00;94979.06;5068800;28;20229;-72
2022/01/07 06:34:12;;;;;;;21.00;11.20;;;;;;;1.95;100.00;94989.50;5068570;28;20287;-72
2022/01/07 06:36:40;;;;;;;19.67;10.87;;;;;;;2.00;100.00;94989.81;5069110;28;20686;-71
2022/01/07 06:39:09;;;;;;;24.50;12.20;;;;;;;2.20;100.00;94996.25;5071033;28;20273;-73
2022/01/07 06:41:36;;;;;;;22.73;11.70;;;;;;;2.32;100.00;95001.06;5072783;28;20681;-72
2022/01/07 06:44:05;;;;;;;21.47;10.93;;;;;;;2.21;100.00;95003.00;5072815;28;20395;-72
2022/01/07 06:46:33;;;;;;;28.47;12.23;;;;;;;2.24;100.00;95005.25;5074188;28;20213;-72
2022/01/07 06:49:01;;;;;;;28.87;12.77;;;;;;;2.17;100.00;95009.38;5074481;28;20239;-73
2022/01/07 06:51:32;;;;;;;27.00;12.87;;;;;;;2.07;100.00;95010.50;5072257;28;20673;-72
2022/01/07 06:54:00;;;;;;;24.30;12.23;;;;;;;2.14;100.00;95014.03;5072851;28;20212;-72
2022/01/07 06:56:28;;;;;;;20.13;11.10;;;;;;;2.22;100.00;95017.41;5072900;28;20205;-72
2022/01/07 06:58:56;;;;;;;18.00;10.50;;;;;;;2.23;100.00;95013.06;5072753;28;20321;-72
2022/01/07 07:01:25;;;;;;;23.20;11.23;;;;;;;2.32;100.00;95011.31;5071919;28;20253;-72
2022/01/07 07:03:53;;;;;;;22.10;11.77;;;;;;;2.43;100.00;95011.00;5072026;28;20205;-73
2022/01/07 07:06:21;;;;;;;17.83;10.20;;;;;;;2.55;100.00;95012.31;5071972;28;20263;-73
2022/01/07 07:08:50;;;;;;;20.07;11.00;;;;;;;2.51;100.00;94996.44;5069015;28;20209;-72
2022/01/07 07:11:18;;;;;;;20.30;11.00;;;;;;;2.51;100.00;95003.34;5071128;28;20201;-72
2022/01/07 07:13:45;;;;;;;19.63;11.50;;;;;;;2.53;100.00;95014.25;5071138;28;20675;-72
2022/01/07 07:16:12;;;;;;;19.97;10.70;;;;;;;2.29;100.00;95004.75;5077025;28;20211;-72
2022/01/07 07:18:40;;;;;;;17.63;10.80;;;;;;;2.28;100.00;95014.22;5072204;28;20262;-72
2022/01/07 07:21:09;;;;;;;20.53;11.47;;;;;;;2.25;100.00;95006.81;5070547;28;20274;-72
2022/01/07 07:23:36;;;;;;;17.23;9.27;;;;;;;2.30;100.00;95014.06;5071438;28;20201;-72
2022/01/07 07:26:06;;;;;;;19.90;11.80;;;;;;;2.47;100.00;95007.19;5071959;28;20669;-72
2022/01/07 07:28:35;;;;;;;18.90;11.17;;;;;;;2.58;100.00;95010.22;5072436;28;20280;-72
2022/01/07 07:31:06;;;;;;;19.47;11.93;;;;;;;2.64;100.00;95016.47;5071222;28;20248;-72
2022/01/07 07:33:56;;;;;;;21.73;11.70;;;;;;;2.67;100.00;95016.97;5070866;28;20678;-73
2022/01/07 07:36:31;;;;;;;21.47;11.83;;;;;;;2.77;100.00;95020.16;5071211;28;20296;-71
2022/01/07 07:39:01;;;;;;;20.37;11.23;;;;;;;2.84;99.10;95016.00;5071688;28;20286;-74
2022/01/07 07:41:31;;;;;;;19.67;11.57;;;;;;;2.78;99.52;95011.50;5071379;28;20220;-73
2022/01/07 07:43:59;;;;;;;26.70;14.83;;;;;;;2.89;99.42;95014.72;5071336;28;20212;-72
2022/01/07 07:46:30;;;;;;;22.67;13.80;;;;;;;2.75;99.56;95019.53;5072992;28;20960;-73
2022/01/07 07:48:58;;;;;;;20.87;12.93;;;;;;;2.62;99.44;95008.97;5071441;28;20200;-71
2022/01/07 07:51:27;;;;;;;23.93;13.93;;;;;;;2.73;99.97;95012.94;5071857;28;20681;-74
2022/01/07 07:53:55;;;;;;;25.03;14.53;;;;;;;2.66;100.00;95006.84;5065092;28;20209;-72
2022/01/07 07:56:25;;;;;;;26.67;14.57;;;;;;;2.78;100.00;95016.63;5071582;28;20205;-71
2022/01/07 07:58:57;;;;;;;23.93;13.83;;;;;;;2.78;99.98;95011.50;5066283;28;21016;-71
2022/01/07 08:01:25;;;;;;;25.13;14.00;;;;;;;2.89;99.35;95020.63;5071244;28;20205;-72
2022/01/07 08:03:57;;;;;;;20.60;12.50;;;;;;;2.83;100.00;95011.81;5065967;28;20255;-71
2022/01/07 08:06:25;;;;;;;20.57;12.37;;;;;;;2.77;100.00;95017.59;5063318;28;20197;-72
2022/01/07 08:08:55;;;;;;;22.67;13.60;;;;;;;2.87;99.66;95009.72;5068522;28;20201;-71
2022/01/07 08:11:24;;;;;;;21.20;11.83;;;;;;;2.93;100.00;95021.13;5070648;28;20813;-72
2022/01/07 08:16:45;;;;;;;19.47;11.60;;;;;;;2.92;99.83;95012.59;5013785;28;20204;-72
2022/01/07 08:19:12;;;;;;;22.40;13.17;;;;;;;3.14;98.91;95016.28;5071399;28;20194;-72
2022/01/07 08:21:41;;;;;;;23.73;13.13;;;;;;;3.14;98.04;95003.44;5069096;28;20217;-72
2022/01/07 08:24:09;;;;;;;32.10;14.43;;;;;;;3.39;97.23;95015.25;5068873;28;20701;-79
2022/01/07 08:26:40;;;;;;;23.70;13.70;;;;;;;3.49;96.00;95015.06;5072142;28;20722;-79
2022/01/07 08:29:11;;;;;;;21.43;12.23;;;;;;;3.43;95.11;95007.03;5063182;28;20217;-80
2022/01/07 08:37:11;;;;;;;25.60;14.80;;;;;;;3.57;95.62;95020.97;5053084;28;20209;-78
2022/01/07 08:39:39;;;;;;;17.97;10.87;;;;;;;3.69;94.51;95016.28;5058091;28;20672;-79
2022/01/07 08:42:07;;;;;;;26.47;14.67;;;;;;;3.89;92.76;95015.72;5071293;28;20248;-78
2022/01/07 08:44:36;;;;;;;20.57;11.97;;;;;;;3.99;91.94;95012.91;5071868;28;20286;-78
2022/01/07 08:47:05;;;;;;;24.10;12.50;;;;;;;4.16;90.60;95019.56;5078607;28;20634;-79
2022/01/07 08:49:32;;;;;;;20.50;11.67;;;;;;;4.27;89.65;95010.69;5070009;28;20263;-77
2022/01/07 08:52:00;;;;;;;20.63;12.30;;;;;;;4.39;88.09;95011.88;5070626;28;20204;-77
2022/01/07 08:54:28;;;;;;;18.77;11.87;;;;;;;4.10;88.94;94999.66;5069893;28;20206;-76
2022/01/07 08:56:56;;;;;;;21.30;12.13;;;;;;;4.16;89.75;95003.34;5059204;28;20196;-77
2022/01/07 08:59:24;;;;;;;20.93;12.13;;;;;;;4.17;89.12;95004.94;5069716;28;20220;-77
2022/01/07 09:01:53;;;;;;;24.47;14.30;;;;;;;4.17;88.58;94992.91;5074075;28;20236;-77
2022/01/07 09:04:21;;;;;;;25.53;14.20;;;;;;;4.21;88.74;94991.59;5063671;28;20558;-76
2022/01/07 09:06:48;;;;;;;23.10;14.80;;;;;;;4.24;89.09;94993.03;5070668;28;20201;-77
2022/01/07 09:09:16;;;;;;;22.97;14.00;;;;;;;4.16;89.41;94990.47;5070020;28;20206;-76
2022/01/07 09:11:43;;;;;;;24.70;13.97;;;;;;;4.15;91.04;94988.91;5071167;28;20233;-78
2022/01/07 09:14:11;;;;;;;30.53;15.87;;;;;;;4.03;90.19;94970.47;5066773;28;20240;-78
2022/01/07 09:16:38;;;;;;;26.73;14.80;;;;;;;3.98;90.57;94986.41;5075039;28;20609;-78
2022/01/07 09:19:07;;;;;;;26.77;14.90;;;;;;;3.91;90.53;94976.97;5063806;28;20205;-77
2022/01/07 09:21:35;;;;;;;24.70;14.07;;;;;;;3.90;90.76;94983.06;5070416;28;20205;-78
2022/01/07 09:24:02;;;;;;;26.70;13.60;;;;;;;3.91;90.62;94967.50;5073828;28;20267;-76
2022/01/07 09:26:30;;;;;;;23.87;13.70;;;;;;;4.00;90.36;94976.78;5070676;28;20197;-76
2022/01/07 09:28:59;;;;;;;23.80;13.90;;;;;;;3.96;90.53;94977.25;5071020;28;20201;-77
2022/01/07 09:31:27;;;;;;;25.73;12.90;;;;;;;3.96;91.58;94977.25;5068133;28;20252;-76
2022/01/07 09:33:55;;;;;;;20.90;11.43;;;;;;;4.13;90.09;94978.75;5072101;28;20190;-77
2022/01/07 09:36:23;;;;;;;20.83;11.23;;;;;;;4.26;88.14;94973.06;5073982;28;20300;-76
2022/01/07 09:38:51;;;;;;;21.00;12.37;;;;;;;4.28;88.42;94971.91;5068469;28;20205;-77
2022/01/07 09:41:18;;;;;;;17.33;11.17;;;;;;;4.36;88.64;94969.28;5068151;28;20706;-76
2022/01/07 09:43:45;;;;;;;23.80;13.27;;;;;;;4.40;87.94;94954.31;5068843;28;20228;-75
2022/01/07 09:46:14;;;;;;;19.77;11.83;;;;;;;4.41;86.82;94963.63;5070954;28;20197;-77
2022/01/07 09:48:43;;;;;;;20.57;12.00;;;;;;;4.31;88.48;94956.13;5072278;28;20208;-75
2022/01/07 09:51:10;;;;;;;17.23;10.77;;;;;;;4.38;87.87;94951.94;5068488;28;20207;-76
2022/01/07 09:53:39;;;;;;;17.70;10.50;;;;;;;4.39;87.99;94953.50;5068054;28;20279;-76
2022/01/07 09:56:06;;;;;;;24.30;11.13;;;;;;;4.45;87.28;94955.38;5066650;28;20286;-74
2022/01/07 09:58:34;;;;;;;20.13;11.30;;;;;;;4.70;86.89;94956.00;5070601;28;20228;-75
2022/01/07 10:01:03;;;;;;;22.20;11.57;;;;;;;4.98;84.39;94958.78;5074037;28;20209;-76
2022/01/07 10:03:38;;;;;;;21.37;12.03;;;;;;;5.13;82.38;94947.53;5071443;28;20240;-76
2022/01/07 10:06:20;;;;;;;19.57;11.37;;;;;;;5.09;82.46;94955.78;5066573;28;20197;-75
2022/01/07 10:09:05;;;;;;;21.70;13.20;;;;;;;5.10;81.87;94952.22;5069270;28;20260;-75
2022/01/07 10:11:32;;;;;;;24.20;11.93;;;;;;;5.19;82.49;94946.03;5067081;28;20209;-75
2022/01/07 10:14:17;;;;;;;17.97;11.27;;;;;;;5.40;81.90;94940.94;5067416;28;20198;-76
2022/01/07 10:16:50;;;;;;;19.90;11.37;;;;;;;5.58;79.45;94941.38;5066941;28;20204;-76
2022/01/07 10:19:30;;;;;;;18.40;10.20;;;;;;;5.74;79.41;94942.97;5067129;28;20204;-76
2022/01/07 10:21:58;;;;;;;14.53;10.00;;;;;;;5.86;77.76;94945.91;5067013;28;20207;-75
2022/01/07 10:24:28;;;;;;;14.07;8.83;;;;;;;5.95;77.15;94949.94;5073356;28;20211;-75
2022/01/07 10:27:13;;;;;;;17.47;9.27;;;;;;;5.99;76.12;94940.88;5073342;28;20208;-75
2022/01/07 10:29:41;;;;;;;16.13;9.30;;;;;;;6.17;75.02;94938.69;5037431;28;1241943;-75
2022/01/07 10:32:29;;;;;;;15.83;10.13;;;;;;;6.32;73.71;94934.25;5072603;28;20273;-75
2022/01/07 10:35:10;;;;;;;18.63;10.87;;;;;;;6.45;72.86;94923.25;5066515;28;20283;-75
2022/01/07 10:37:45;;;;;;;17.60;10.33;;;;;;;6.53;72.81;94923.09;5067788;28;20213;-75
2022/01/07 10:40:30;;;;;;;18.20;10.97;;;;;;;6.60;72.39;94921.41;5065340;28;20212;-75
2022/01/07 10:43:09;;;;;;;21.73;11.37;;;;;;;6.68;71.44;94916.09;5070763;28;20269;-76
2022/01/07 10:45:37;;;;;;;21.13;12.50;;;;;;;6.67;71.20;94910.13;5065365;28;20212;-76
2022/01/07 10:48:06;;;;;;;21.10;12.97;;;;;;;6.64;71.39;94913.06;5067662;28;20296;-76
2022/01/07 10:50:38;;;;;;;19.87;11.70;;;;;;;6.79;70.56;94916.38;5067967;28;20189;-75
2022/01/07 10:53:24;;;;;;;17.63;11.57;;;;;;;6.84;69.34;94914.00;5070194;28;20276;-76
2022/01/07 10:56:06;;;;;;;14.80;9.83;;;;;;;6.65;70.64;94919.84;5067069;28;20204;-75
2022/01/07 10:59:07;;;;;;;14.77;9.23;;;;;;;6.68;71.15;94916.88;5070047;28;20196;-76
2022/01/07 11:01:43;;;;;;;17.00;10.70;;;;;;;6.78;71.25;94914.00;5068157;28;20255;-75
2022/01/07 11:04:13;;;;;;;19.20;10.47;;;;;;;6.83;70.35;94915.03;5069735;28;20729;-76
2022/01/07 11:06:41;;;;;;;18.80;9.73;;;;;;;6.95;70.39;94911.91;5072998;28;20219;-76
2022/01/07 11:09:10;;;;;;;17.70;9.83;;;;;;;6.97;69.60;94910.72;5068250;28;20821;-75
2022/01/07 11:11:46;;;;;;;17.77;9.93;;;;;;;7.06;69.52;94907.00;5067175;28;20264;-76
2022/01/07 11:14:17;;;;;;;18.77;10.47;;;;;;;7.07;69.14;94900.06;5058367;28;20197;-76
2022/01/07 11:16:46;;;;;;;15.87;9.73;;;;;;;7.16;68.98;94896.31;5070793;28;20205;-76
2022/01/07 11:19:38;;;;;;;16.67;9.50;;;;;;;7.25;68.25;94900.34;5067711;28;20217;-75
2022/01/07 11:22:16;;;;;;;17.33;9.80;;;;;;;7.15;67.99;94898.13;5064953;28;20311;-77
2022/01/07 11:24:54;;;;;;;16.43;9.77;;;;;;;7.25;68.04;94901.16;5073906;28;21046;-76
2022/01/07 11:27:26;;;;;;;16.73;10.00;;;;;;;7.32;67.71;94894.25;5073897;28;20211;-78
2022/01/07 11:30:11;;;;;;;15.47;10.23;;;;;;;7.38;66.69;94895.25;5071609;28;20197;-77
2022/01/07 11:32:46;;;;;;;17.93;10.53;;;;;;;7.34;66.51;94891.44;5080748;28;20197;-75
2022/01/07 11:35:50;;;;;;;19.73;10.33;;;;;;;7.04;64.81;94866.84;5068094;28;20201;-77
2022/01/07 11:38:43;;;;;;;19.10;10.23;;;;;;;7.06;65.80;94886.34;5073726;28;20223;-78
2022/01/07 11:41:47;;;;;;;22.40;11.20;;;;;;;6.93;66.55;94896.59;5085390;28;20207;-76
2022/01/07 11:44:31;;;;;;;18.40;10.63;;;;;;;6.85;66.49;94882.03;5077893;28;20706;-77
2022/01/07 11:47:25;;;;;;;15.93;9.50;;;;;;;6.68;68.00;94883.31;5076218;28;20197;-77